Time;durP1;ratioP1;P1;durP2;ratioP2;P2;SDS_P1;SDS_P2;PMS_P1;PMS_P2;Temp;Humidity;BMP_temperature;BMP_pressure;BME280_temperature;BME280_humidity;BME280_pressure;Samples;Min_cycle;Max_cycle;Signal;HPM_P1;HPM_P2
2021/03/19 00:02:28;;;;;;;4.43;1.55;;;;;;;6.81;100.00;100992.91;5013871;28;20061;-76
2021/03/19 00:05:31;;;;;;;8.30;2.65;;;;;;;6.84;100.00;101005.91;5013914;28;20065;-76
2021/03/19 00:08:35;;;;;;;10.68;3.50;;;;;;;6.83;100.00;101009.88;5012685;28;20077;-76
2021/03/19 00:11:39;;;;;;;4.15;1.90;;;;;;;6.84;100.00;101007.91;5014032;28;20108;-76
2021/03/19 00:14:43;;;;;;;8.38;3.03;;;;;;;6.83;100.00;100998.03;5013748;28;20060;-76
2021/03/19 00:17:47;;;;;;;8.88;2.95;;;;;;;6.86;100.00;101000.72;5013119;28;20081;-76
2021/03/19 00:20:51;;;;;;;9.35;2.72;;;;;;;6.88;100.00;100994.78;5013200;28;20416;-76
2021/03/19 00:23:55;;;;;;;3.63;1.17;;;;;;;6.92;100.00;101009.34;5013592;28;20569;-76
2021/03/19 00:26:58;;;;;;;8.95;1.27;;;;;;;6.94;100.00;101004.16;5013580;28;20073;-76
2021/03/19 00:30:05;;;;;;;11.60;2.53;;;;;;;6.95;100.00;101000.19;5013514;28;20065;-76
2021/03/19 00:33:09;;;;;;;7.10;1.90;;;;;;;6.99;100.00;101005.66;5013589;28;20069;-76
2021/03/19 00:36:12;;;;;;;7.63;1.70;;;;;;;6.99;100.00;100995.38;5013347;28;20081;-75
2021/03/19 00:39:16;;;;;;;5.88;1.67;;;;;;;7.06;100.00;101000.00;5009842;28;20412;-76
2021/03/19 00:42:19;;;;;;;0.98;0.63;;;;;;;7.15;100.00;100998.22;5012619;28;20057;-76
2021/03/19 00:45:24;;;;;;;0.77;0.30;;;;;;;7.20;100.00;101000.50;5012612;28;20451;-76
2021/03/19 00:48:28;;;;;;;0.60;0.30;;;;;;;7.29;100.00;101014.59;5012912;28;20514;-76
2021/03/19 00:51:32;;;;;;;0.82;0.65;;;;;;;7.40;100.00;100998.53;5012599;28;20061;-76
2021/03/19 00:54:35;;;;;;;0.57;0.45;;;;;;;7.50;100.00;101011.41;5012785;28;20060;-76
2021/03/19 00:57:39;;;;;;;0.98;0.32;;;;;;;7.57;100.00;101014.03;5012083;28;20057;-76
2021/03/19 01:00:43;;;;;;;0.43;0.43;;;;;;;7.60;100.00;101001.31;5013183;28;20064;-76
2021/03/19 01:03:46;;;;;;;0.40;0.28;;;;;;;7.63;100.00;101005.97;5012796;28;20491;-75
2021/03/19 01:06:49;;;;;;;0.20;0.20;;;;;;;7.67;100.00;101005.94;5012616;28;20424;-76
2021/03/19 01:09:53;;;;;;;0.30;0.10;;;;;;;7.69;100.00;101012.59;5012784;28;20076;-76
2021/03/19 01:12:56;;;;;;;0.20;0.20;;;;;;;7.65;100.00;101009.91;5012673;28;20061;-76
2021/03/19 01:16:00;;;;;;;15.68;0.63;;;;;;;7.59;100.00;101011.63;5012737;28;20057;-76
2021/03/19 01:19:03;;;;;;;1.17;0.30;;;;;;;7.59;100.00;101011.63;5012617;28;20069;-76
2021/03/19 01:22:06;;;;;;;1.48;0.47;;;;;;;7.70;100.00;101021.69;5007145;28;20065;-76
2021/03/19 01:25:14;;;;;;;1.17;0.40;;;;;;;7.68;100.00;101018.56;5012485;28;20168;-77
2021/03/19 01:28:18;;;;;;;0.28;0.28;;;;;;;7.63;100.00;101011.53;5012546;28;20076;-76
2021/03/19 01:31:21;;;;;;;0.93;0.22;;;;;;;7.62;100.00;101013.50;5011619;28;20080;-76
2021/03/19 01:34:25;;;;;;;0.10;0.10;;;;;;;7.58;100.00;101021.13;5012241;28;20069;-76
2021/03/19 01:37:29;;;;;;;0.45;0.30;;;;;;;7.54;100.00;101023.19;5012379;28;20052;-76
2021/03/19 01:40:39;;;;;;;0.10;0.10;;;;;;;7.49;100.00;101020.91;5012159;28;20069;-76
2021/03/19 01:43:43;;;;;;;0.35;0.35;;;;;;;7.46;100.00;101030.09;5011983;28;20080;-76
2021/03/19 01:47:24;;;;;;;0.10;0.10;;;;;;;7.43;100.00;101039.25;5012041;28;20416;-76
2021/03/19 01:51:05;;;;;;;0.20;0.17;;;;;;;7.42;100.00;101029.38;5010821;28;20056;-77
2021/03/19 01:54:46;;;;;;;0.10;0.10;;;;;;;7.39;100.00;101024.69;5007123;28;20061;-76
2021/03/19 01:58:27;;;;;;;0.10;0.10;;;;;;;7.33;100.00;101031.94;4989462;28;20069;-77
2021/03/19 02:02:08;;;;;;;0.10;0.10;;;;;;;7.29;100.00;101033.97;4988270;28;20416;-76
2021/03/19 02:05:49;;;;;;;0.40;0.38;;;;;;;7.23;100.00;101032.13;4989720;28;20069;-77
2021/03/19 02:09:41;;;;;;;0.28;0.15;;;;;;;7.19;100.00;101023.88;4988756;28;20077;-76
2021/03/19 02:13:22;;;;;;;1.95;0.88;;;;;;;7.17;100.00;101031.06;4975352;28;20070;-76
2021/03/19 02:17:03;;;;;;;0.10;0.10;;;;;;;7.14;100.00;101029.91;4979713;28;20065;-76
2021/03/19 02:20:44;;;;;;;0.20;0.20;;;;;;;7.11;100.00;101024.41;4970024;28;20066;-76
2021/03/19 02:24:25;;;;;;;1.27;0.03;;;;;;;7.11;100.00;101029.97;4989053;28;20122;-77
2021/03/19 02:28:06;;;;;;;1.48;0.57;;;;;;;7.09;100.00;101033.16;4970850;28;20073;-76
2021/03/19 02:31:13;;;;;;;0.10;0.10;;;;;;;7.09;100.00;101026.84;4971479;28;20421;-76
2021/03/19 02:34:17;;;;;;;3.38;0.93;;;;;;;7.06;100.00;101036.75;4970203;28;20061;-77
2021/03/19 02:37:27;;;;;;;0.22;0.15;;;;;;;7.04;100.00;101036.41;4972207;28;20057;-79
2021/03/19 02:40:30;;;;;;;0.15;0.15;;;;;;;7.02;100.00;101032.53;4970597;28;20081;-76
2021/03/19 02:43:34;;;;;;;0.20;0.20;;;;;;;6.99;100.00;101028.59;4971922;28;20061;-76
2021/03/19 02:46:37;;;;;;;1.83;0.65;;;;;;;6.98;100.00;101029.78;4971939;28;20070;-77
2021/03/19 02:49:41;;;;;;;0.38;0.30;;;;;;;6.97;100.00;101036.56;4971699;28;20099;-77
2021/03/19 02:52:44;;;;;;;0.80;0.10;;;;;;;6.97;100.00;101039.31;4979662;28;20062;-78
2021/03/19 02:55:48;;;;;;;0.20;0.10;;;;;;;6.93;100.00;101030.28;4977687;28;20061;-76
2021/03/19 02:58:52;;;;;;;0.15;0.10;;;;;;;6.91;100.00;101024.38;4970733;28;20107;-76
2021/03/19 03:01:55;;;;;;;0.35;0.20;;;;;;;6.86;100.00;101030.41;4979708;28;20061;-75
2021/03/19 03:04:59;;;;;;;0.10;0.10;;;;;;;6.84;100.00;101024.53;4979522;28;20065;-75
2021/03/19 03:08:03;;;;;;;0.20;0.20;;;;;;;6.81;100.00;101017.03;4985523;28;20081;-75
2021/03/19 03:11:07;;;;;;;0.20;0.20;;;;;;;6.77;100.00;101022.66;4979518;28;20062;-76
2021/03/19 03:14:13;;;;;;;0.17;0.17;;;;;;;6.75;100.00;101018.72;4970707;28;20062;-77
2021/03/19 03:17:17;;;;;;;0.38;0.10;;;;;;;6.71;100.00;101018.00;4970974;28;20524;-77
2021/03/19 03:20:34;;;;;;;0.10;0.10;;;;;;;6.65;100.00;101016.91;4971216;28;20061;-75
2021/03/19 03:23:38;;;;;;;0.57;0.40;;;;;;;6.56;100.00;101016.69;4971478;28;20082;-76
2021/03/19 03:26:42;;;;;;;0.10;0.10;;;;;;;6.53;100.00;101017.50;4971449;28;20085;-76
2021/03/19 03:29:46;;;;;;;0.20;0.20;;;;;;;6.52;100.00;101015.97;4979114;28;20070;-75
2021/03/19 03:32:50;;;;;;;0.30;0.30;;;;;;;6.44;100.00;101017.25;4978780;28;20074;-76
2021/03/19 03:35:53;;;;;;;0.10;0.10;;;;;;;6.39;100.00;101018.50;4979254;28;20062;-76
2021/03/19 03:38:57;;;;;;;0.10;0.10;;;;;;;6.31;100.00;101010.72;4979234;28;20062;-75
2021/03/19 03:42:04;;;;;;;0.10;0.10;;;;;;;6.30;100.00;101009.19;4979586;28;20524;-75
2021/03/19 03:45:08;;;;;;;0.30;0.25;;;;;;;6.29;100.00;101013.13;4979007;28;20069;-75
2021/03/19 03:48:15;;;;;;;1.25;0.10;;;;;;;6.30;100.00;101014.72;4971240;28;20063;-76
2021/03/19 03:51:18;;;;;;;0.30;0.30;;;;;;;6.34;100.00;101005.16;4970349;28;20074;-75
2021/03/19 03:54:22;;;;;;;0.30;0.20;;;;;;;6.38;100.00;101010.63;4971301;28;20070;-76
2021/03/19 03:57:26;;;;;;;0.10;0.10;;;;;;;6.37;100.00;101015.38;4971171;28;20074;-76
2021/03/19 04:00:30;;;;;;;0.10;0.10;;;;;;;6.37;100.00;101014.59;4970975;28;20077;-75
2021/03/19 04:03:35;;;;;;;0.20;0.20;;;;;;;6.38;100.00;101022.50;4970683;28;20421;-76
2021/03/19 04:06:38;;;;;;;0.25;0.25;;;;;;;6.38;100.00;101022.50;4971161;28;20066;-76
2021/03/19 04:09:42;;;;;;;0.20;0.20;;;;;;;6.36;100.00;101040.69;4971072;28;20061;-75
2021/03/19 04:12:46;;;;;;;0.10;0.10;;;;;;;6.36;100.00;101044.25;4978842;28;20103;-77
2021/03/19 04:15:50;;;;;;;0.20;0.20;;;;;;;6.34;100.00;101049.44;4978996;28;20062;-76
2021/03/19 04:18:54;;;;;;;0.10;0.10;;;;;;;6.35;100.00;101041.88;4978888;28;20697;-76
2021/03/19 04:21:57;;;;;;;0.10;0.10;;;;;;;6.34;100.00;101048.63;4995580;28;20081;-75
2021/03/19 04:25:00;;;;;;;0.10;0.00;;;;;;;6.35;100.00;101044.66;4990931;28;20061;-76
2021/03/19 04:28:13;;;;;;;0.60;0.22;;;;;;;6.36;100.00;101049.00;4999844;28;20092;-75
2021/03/19 04:31:16;;;;;;;0.45;0.35;;;;;;;6.35;100.00;101050.97;5009679;28;20064;-76
2021/03/19 04:34:19;;;;;;;0.10;0.10;;;;;;;6.36;100.00;101060.06;5012875;28;20057;-76
2021/03/19 04:37:23;;;;;;;1.88;1.00;;;;;;;6.33;100.00;101053.38;5012906;28;20424;-76
2021/03/19 04:40:27;;;;;;;0.32;0.22;;;;;;;6.32;100.00;101056.56;5013203;28;20053;-75
2021/03/19 04:43:32;;;;;;;0.10;0.10;;;;;;;6.27;100.00;101062.56;5013189;28;20060;-75
2021/03/19 04:46:35;;;;;;;0.75;0.30;;;;;;;6.24;100.00;101060.66;5013025;28;20069;-76
2021/03/19 04:49:40;;;;;;;0.32;0.32;;;;;;;6.23;100.00;101061.84;5012886;28;20072;-75
2021/03/19 04:52:43;;;;;;;0.20;0.20;;;;;;;6.19;100.00;101061.09;5012694;28;20065;-76
2021/03/19 04:55:46;;;;;;;0.10;0.10;;;;;;;6.13;100.00;101061.56;5012692;28;20388;-76
2021/03/19 04:58:50;;;;;;;0.30;0.30;;;;;;;6.05;100.00;101065.63;5011448;28;20057;-76
2021/03/19 05:01:57;;;;;;;0.20;0.20;;;;;;;5.97;100.00;101066.94;5009943;28;20078;-75
2021/03/19 05:05:01;;;;;;;0.10;0.10;;;;;;;5.85;100.00;101061.94;5012327;28;20077;-78
2021/03/19 05:08:05;;;;;;;0.32;0.32;;;;;;;5.76;100.00;101064.38;5012055;28;20069;-77
2021/03/19 05:11:09;;;;;;;0.43;0.20;;;;;;;5.70;100.00;101066.03;5012514;28;20073;-76
2021/03/19 05:14:12;;;;;;;0.75;0.10;;;;;;;5.60;100.00;101066.16;5011848;28;20077;-77
2021/03/19 05:17:16;;;;;;;0.20;0.20;;;;;;;5.53;100.00;101072.56;5012384;28;20061;-77
2021/03/19 05:20:20;;;;;;;0.22;0.22;;;;;;;5.47;100.00;101074.19;5011818;28;20061;-77
2021/03/19 05:23:27;;;;;;;0.63;0.20;;;;;;;5.44;100.00;101075.00;5012187;28;20060;-78
2021/03/19 05:26:31;;;;;;;0.20;0.20;;;;;;;5.50;100.00;101078.88;5012433;28;20061;-77
2021/03/19 05:29:34;;;;;;;0.13;0.13;;;;;;;5.61;100.00;101096.13;5012412;28;20065;-77
2021/03/19 05:32:38;;;;;;;0.20;0.20;;;;;;;5.65;100.00;101099.63;5012421;28;20083;-77
2021/03/19 05:35:42;;;;;;;0.30;0.30;;;;;;;5.67;100.00;101094.50;5011377;28;21556;-77
2021/03/19 05:38:46;;;;;;;0.35;0.30;;;;;;;5.69;100.00;101086.59;5011431;28;20060;-77
2021/03/19 05:41:49;;;;;;;0.25;0.25;;;;;;;5.71;100.00;101084.19;5004718;28;20067;-77
2021/03/19 05:45:19;;;;;;;0.35;0.20;;;;;;;5.76;100.00;101085.72;5011718;28;20064;-76
2021/03/19 05:48:25;;;;;;;2.15;0.40;;;;;;;5.78;100.00;101088.84;5011054;28;20065;-78
2021/03/19 05:51:47;;;;;;;0.30;0.10;;;;;;;5.79;100.00;101091.19;5011675;28;20068;-76
2021/03/19 05:54:52;;;;;;;0.10;0.10;;;;;;;5.79;100.00;101107.00;5011437;28;20064;-77
2021/03/19 05:57:58;;;;;;;1.10;0.38;;;;;;;5.77;100.00;101109.38;5011790;28;20064;-77
2021/03/19 06:01:02;;;;;;;0.43;0.20;;;;;;;5.78;100.00;101117.25;5011663;28;20065;-76
2021/03/19 06:04:06;;;;;;;0.30;0.30;;;;;;;5.80;100.00;101122.41;5011512;28;20061;-76
2021/03/19 06:07:10;;;;;;;0.10;0.10;;;;;;;5.80;100.00;101120.44;5011568;28;20064;-75
2021/03/19 06:10:39;;;;;;;0.10;0.10;;;;;;;5.78;100.00;101122.03;5011479;28;20515;-75
2021/03/19 06:13:44;;;;;;;0.10;0.10;;;;;;;5.75;100.00;101129.16;5002774;28;20068;-75
2021/03/19 06:16:50;;;;;;;1.92;0.20;;;;;;;5.78;100.00;101133.84;5011915;28;20057;-75
2021/03/19 06:20:05;;;;;;;0.13;0.13;;;;;;;5.76;100.00;101130.72;4986767;28;20065;-75
2021/03/19 06:23:18;;;;;;;0.30;0.30;;;;;;;5.78;100.00;101142.13;4972192;28;20070;-75
2021/03/19 06:26:25;;;;;;;0.20;0.20;;;;;;;5.82;100.00;101134.63;4971689;28;20839;-75
2021/03/19 06:29:33;;;;;;;0.10;0.10;;;;;;;5.85;100.00;101144.88;4971860;28;20058;-75
2021/03/19 06:32:37;;;;;;;0.10;0.10;;;;;;;5.89;100.00;101140.06;4973161;28;20074;-75
2021/03/19 06:36:21;;;;;;;0.20;0.20;;;;;;;5.93;100.00;101146.34;4972054;28;20425;-77
2021/03/19 06:39:43;;;;;;;4.88;1.75;;;;;;;5.95;100.00;101143.97;4971431;28;20081;-77
2021/03/19 06:42:46;;;;;;;0.32;0.32;;;;;;;5.96;100.00;101144.75;4973325;28;20086;-78
2021/03/19 06:46:26;;;;;;;0.40;0.40;;;;;;;5.99;100.00;101150.25;4971939;28;20062;-77
2021/03/19 06:49:47;;;;;;;0.25;0.17;;;;;;;6.17;100.00;101160.31;4980975;28;20062;-75
2021/03/19 06:52:54;;;;;;;1.95;0.85;;;;;;;6.22;100.00;101160.63;4971739;28;20061;-77
2021/03/19 06:56:18;;;;;;;0.30;0.30;;;;;;;6.29;100.00;101156.97;4971504;28;20062;-77
2021/03/19 06:59:27;;;;;;;0.22;0.20;;;;;;;6.29;100.00;101162.50;4971218;28;20062;-78
2021/03/19 07:02:31;;;;;;;1.10;0.20;;;;;;;6.30;100.00;101161.34;4971795;28;20070;-78
2021/03/19 07:05:49;;;;;;;0.10;0.10;;;;;;;6.32;100.00;101168.03;4971736;28;20088;-78
2021/03/19 07:09:11;;;;;;;0.57;0.50;;;;;;;6.36;100.00;101173.50;4971451;28;20421;-77
2021/03/19 07:12:40;;;;;;;0.45;0.20;;;;;;;6.40;100.00;101172.25;4970632;28;20070;-77
2021/03/19 07:15:54;;;;;;;0.20;0.20;;;;;;;6.44;100.00;101174.97;4990834;28;20073;-78
2021/03/19 07:19:07;;;;;;;1.45;0.40;;;;;;;6.48;100.00;101173.72;4976597;28;20138;-78
2021/03/19 07:22:24;;;;;;;0.20;0.20;;;;;;;6.54;100.00;101179.59;4984095;28;20421;-78
2021/03/19 07:25:46;;;;;;;0.85;0.20;;;;;;;6.55;100.00;101184.72;4990092;28;20061;-78
2021/03/19 07:29:10;;;;;;;1.00;0.30;;;;;;;6.60;100.00;101184.25;4990719;28;20066;-78
2021/03/19 07:32:52;;;;;;;1.13;0.55;;;;;;;6.68;100.00;101190.47;4991034;28;20528;-77
2021/03/19 07:36:44;;;;;;;0.38;0.38;;;;;;;6.72;100.00;101185.66;5003656;28;20073;-78
2021/03/19 07:39:47;;;;;;;0.10;0.10;;;;;;;6.72;100.00;101193.97;4968597;28;20065;-77
2021/03/19 07:43:09;;;;;;;1.35;0.40;;;;;;;6.75;100.00;101187.59;5010118;28;20061;-78
2021/03/19 07:46:40;;;;;;;0.10;0.10;;;;;;;6.91;100.00;101198.81;5010822;28;20069;-77
2021/03/19 07:50:03;;;;;;;2.00;0.50;;;;;;;6.93;100.00;101196.41;5009799;28;20057;-77
2021/03/19 07:53:19;;;;;;;0.20;0.10;;;;;;;6.94;100.00;101203.53;5010037;28;20318;-77
2021/03/19 07:56:34;;;;;;;0.43;0.20;;;;;;;6.98;100.00;101206.25;5009141;28;20084;-78
2021/03/19 07:59:59;;;;;;;0.70;0.47;;;;;;;7.02;100.00;101199.44;5010210;28;22576;-77
2021/03/19 08:03:11;;;;;;;0.28;0.28;;;;;;;7.09;100.00;101207.66;5012901;28;20076;-77
2021/03/19 08:06:18;;;;;;;;;;;;;;;7.15;100.00;101208.75;5013457;28;20073;-77
2021/03/19 08:09:44;;;;;;;0.30;0.30;;;;;;;7.23;100.00;101221.31;5012995;28;19922;-78
2021/03/19 08:13:03;;;;;;;1.02;0.52;;;;;;;7.31;100.00;101222.75;5013620;28;20065;-77
2021/03/19 08:16:21;;;;;;;0.65;0.30;;;;;;;7.44;100.00;101226.50;5014106;28;20052;-78
2021/03/19 08:20:10;;;;;;;0.40;0.40;;;;;;;7.52;100.00;101227.94;5013181;28;20061;-77
2021/03/19 08:23:20;;;;;;;3.20;0.60;;;;;;;7.56;100.00;101239.75;4933142;29;20622;-77
2021/03/19 08:26:36;;;;;;;0.52;0.32;;;;;;;7.57;100.00;101246.88;4934002;28;20067;-78
2021/03/19 08:29:51;;;;;;;0.80;0.38;;;;;;;7.62;100.00;101238.06;4993972;28;20065;-77
2021/03/19 08:33:05;;;;;;;0.10;0.10;;;;;;;7.73;100.00;101248.22;4994256;28;20061;-76
2021/03/19 08:36:21;;;;;;;0.80;0.13;;;;;;;7.79;100.00;101240.97;4993612;28;20534;-76
2021/03/19 08:39:42;;;;;;;0.47;0.40;;;;;;;7.87;100.00;101243.19;4992245;28;20424;-77
2021/03/19 08:42:51;;;;;;;0.52;0.52;;;;;;;7.93;100.00;101240.69;5010322;28;20549;-76
2021/03/19 08:46:01;;;;;;;0.30;0.10;;;;;;;7.96;100.00;101245.41;5011507;28;20068;-77
2021/03/19 08:49:13;;;;;;;1.00;0.40;;;;;;;8.03;100.00;101239.75;5011897;28;20065;-76
2021/03/19 08:52:35;;;;;;;;;;;;;;;8.13;100.00;101249.84;5013459;28;20559;-77
2021/03/19 08:55:44;;;;;;;1.98;0.75;;;;;;;8.18;100.00;101250.16;5011831;28;19921;-76
2021/03/19 08:58:51;;;;;;;1.35;0.30;;;;;;;8.17;100.00;101245.00;5012706;28;20076;-77
2021/03/19 09:01:57;;;;;;;2.00;0.75;;;;;;;8.24;100.00;101253.22;5012985;28;20072;-77
2021/03/19 09:05:13;;;;;;;4.88;1.05;;;;;;;8.32;100.00;101263.00;5012416;28;20065;-77
2021/03/19 09:08:22;;;;;;;1.17;0.30;;;;;;;8.29;100.00;101269.41;5012225;28;20084;-78
2021/03/19 09:11:51;;;;;;;0.30;0.30;;;;;;;8.23;100.00;101271.06;5012749;28;20432;-76
2021/03/19 09:15:15;;;;;;;0.77;0.28;;;;;;;8.27;100.00;101264.25;5012528;28;20061;-77
2021/03/19 09:18:39;;;;;;;0.30;0.22;;;;;;;8.37;100.00;101270.84;5013362;28;20136;-78
2021/03/19 09:21:42;;;;;;;1.70;0.70;;;;;;;8.62;100.00;101275.91;5012034;28;20424;-78
2021/03/19 09:25:12;;;;;;;0.63;0.35;;;;;;;8.59;100.00;101263.66;5012688;28;20408;-77
2021/03/19 09:28:33;;;;;;;0.50;0.50;;;;;;;8.52;100.00;101280.44;5011642;28;20539;-77
2021/03/19 09:31:41;;;;;;;0.40;0.20;;;;;;;8.61;100.00;101275.13;5012127;28;20458;-77
2021/03/19 09:34:45;;;;;;;0.13;0.10;;;;;;;8.57;100.00;101279.97;5011925;28;20090;-78
2021/03/19 09:37:51;;;;;;;0.68;0.30;;;;;;;8.60;100.00;101290.19;5012012;28;20065;-77
2021/03/19 09:41:07;;;;;;;0.30;0.00;;;;;;;8.57;100.00;101285.50;5012043;28;20062;-78
2021/03/19 09:44:25;;;;;;;0.55;0.22;;;;;;;8.50;100.00;101291.19;5012051;28;20436;-77
2021/03/19 09:47:39;;;;;;;0.75;0.47;;;;;;;8.57;100.00;101285.50;5011668;28;20073;-76
2021/03/19 09:50:56;;;;;;;2.15;0.43;;;;;;;8.72;100.00;101292.34;5011330;28;20077;-78
2021/03/19 09:54:20;;;;;;;0.63;0.35;;;;;;;8.68;100.00;101294.41;5011977;28;20061;-78
2021/03/19 09:57:28;;;;;;;0.30;0.20;;;;;;;8.58;100.00;101303.72;5010942;28;20164;-78
2021/03/19 10:00:31;;;;;;;0.95;0.35;;;;;;;8.51;100.00;101308.66;5012246;28;20065;-78
2021/03/19 10:03:57;;;;;;;0.85;0.40;;;;;;;8.48;100.00;101304.72;5011497;28;20519;-78
2021/03/19 10:07:13;;;;;;;1.55;0.52;;;;;;;8.44;100.00;101309.56;5011489;28;20065;-78
2021/03/19 10:10:28;;;;;;;0.10;0.10;;;;;;;8.41;100.00;101315.97;5011065;28;20424;-78
2021/03/19 10:13:34;;;;;;;0.30;0.10;;;;;;;8.33;100.00;101326.44;5011300;28;20526;-78
2021/03/19 10:16:38;;;;;;;0.30;0.25;;;;;;;8.31;100.00;101316.94;5012114;28;20061;-78
2021/03/19 10:19:46;;;;;;;5.25;0.73;;;;;;;8.30;100.00;101316.16;5011342;28;20064;-77
2021/03/19 10:22:53;;;;;;;0.70;0.10;;;;;;;8.26;100.00;101322.97;5010423;28;20072;-77
2021/03/19 10:26:33;;;;;;;0.10;0.10;;;;;;;8.30;100.00;101320.91;5011161;28;20527;-77
2021/03/19 10:29:41;;;;;;;0.20;0.10;;;;;;;8.37;100.00;101309.69;5010802;28;20403;-77
2021/03/19 10:32:45;;;;;;;0.75;0.17;;;;;;;8.40;100.00;101323.50;5011659;28;20061;-77
2021/03/19 10:35:57;;;;;;;1.00;0.20;;;;;;;8.50;100.00;101315.41;5011102;28;20082;-76
2021/03/19 10:39:29;;;;;;;0.20;0.20;;;;;;;8.74;100.00;101311.34;5011153;28;20125;-77
2021/03/19 10:42:37;;;;;;;1.88;0.65;;;;;;;8.97;100.00;101303.72;5010228;28;20080;-76
2021/03/19 10:45:43;;;;;;;1.50;0.43;;;;;;;9.08;100.00;101309.03;5011652;28;20057;-77
2021/03/19 10:48:51;;;;;;;1.00;0.20;;;;;;;9.25;100.00;101301.53;5014240;28;20061;-77
2021/03/19 10:52:04;;;;;;;0.55;0.40;;;;;;;9.36;100.00;101307.63;5006221;28;20076;-76
2021/03/19 10:55:12;;;;;;;0.50;0.20;;;;;;;9.63;100.00;101311.75;5015539;28;20531;-77
2021/03/19 10:58:19;;;;;;;0.57;0.20;;;;;;;9.86;100.00;101306.03;5010818;28;20069;-77
2021/03/19 11:01:32;;;;;;;2.50;0.85;;;;;;;9.78;100.00;101312.97;5007938;28;20061;-78
2021/03/19 11:05:00;;;;;;;0.57;0.20;;;;;;;9.66;100.00;101321.22;5010704;28;20061;-78
2021/03/19 11:08:16;;;;;;;3.72;0.43;;;;;;;9.63;100.00;101322.88;5005369;28;20057;-77
2021/03/19 11:11:31;;;;;;;0.60;0.28;;;;;;;9.64;100.00;101330.00;5009828;28;20061;-78
2021/03/19 11:14:34;;;;;;;0.35;0.20;;;;;;;9.66;100.00;101329.56;5010752;28;20061;-77
2021/03/19 11:17:38;;;;;;;0.10;0.10;;;;;;;9.83;100.00;101339.50;5007836;28;20511;-77
2021/03/19 11:20:44;;;;;;;0.25;0.13;;;;;;;9.69;100.00;101340.63;5005033;28;20057;-76
2021/03/19 11:24:17;;;;;;;0.10;0.08;;;;;;;9.61;100.00;101338.44;5010192;28;20065;-77
2021/03/19 11:27:24;;;;;;;0.68;0.10;;;;;;;9.64;100.00;101343.13;5009760;28;20080;-77
2021/03/19 11:30:35;;;;;;;0.75;0.32;;;;;;;9.57;100.00;101348.88;5011045;28;20057;-76
2021/03/19 11:34:04;;;;;;;1.48;0.30;;;;;;;9.59;100.00;101352.00;5010581;28;20064;-78
2021/03/19 11:37:13;;;;;;;0.60;0.30;;;;;;;9.65;100.00;101347.47;5013348;28;20057;-78
2021/03/19 11:40:34;;;;;;;0.38;0.25;;;;;;;9.83;100.00;101336.72;5010428;28;20065;-79
2021/03/19 11:43:38;;;;;;;2.60;0.30;;;;;;;9.83;100.00;101345.81;5013772;28;20407;-78
2021/03/19 11:46:42;;;;;;;0.30;0.30;;;;;;;9.91;100.00;101338.91;5015013;28;20514;-77
2021/03/19 11:49:47;;;;;;;0.85;0.25;;;;;;;10.02;100.00;101335.84;5014039;28;20053;-77
2021/03/19 11:53:01;;;;;;;0.98;0.15;;;;;;;10.00;100.00;101337.50;5014129;28;20053;-76
2021/03/19 11:56:05;;;;;;;0.20;0.20;;;;;;;9.90;100.00;101337.31;5014182;28;20057;-77
2021/03/19 11:59:12;;;;;;;0.30;0.13;;;;;;;9.78;100.00;101340.81;5009722;28;20423;-79
2021/03/19 12:02:41;;;;;;;0.68;0.57;;;;;;;9.85;100.00;101351.75;5013895;28;20061;-79
2021/03/19 12:05:45;;;;;;;0.30;0.30;;;;;;;9.90;100.00;101358.78;5013342;28;20412;-78
2021/03/19 12:08:49;;;;;;;1.65;0.40;;;;;;;9.89;100.00;101352.47;5013255;28;20065;-79
2021/03/19 12:11:53;;;;;;;0.85;0.57;;;;;;;9.98;100.00;101353.84;5012813;28;20061;-80
2021/03/19 12:14:57;;;;;;;0.30;0.10;;;;;;;9.81;100.00;101351.03;5012346;28;20065;-80
2021/03/19 12:18:01;;;;;;;1.08;0.20;;;;;;;9.62;100.00;101359.47;5008137;28;20412;-80
2021/03/19 12:21:05;;;;;;;0.40;0.20;;;;;;;9.53;100.00;101353.72;4993988;28;20077;-79
2021/03/19 12:24:09;;;;;;;2.92;0.47;;;;;;;9.45;100.00;101360.66;4992421;28;20558;-81
2021/03/19 12:27:14;;;;;;;1.83;0.40;;;;;;;9.37;100.00;101362.81;4993627;28;20061;-82
2021/03/19 12:30:19;;;;;;;1.05;0.60;;;;;;;9.30;100.00;101356.59;4989549;28;20062;-80
2021/03/19 12:33:24;;;;;;;1.33;0.40;;;;;;;9.26;100.00;101353.91;4993090;28;20511;-83
2021/03/19 12:36:27;;;;;;;0.47;0.20;;;;;;;9.27;100.00;101361.03;4992685;28;20057;-79
2021/03/19 12:39:31;;;;;;;1.75;0.65;;;;;;;9.28;100.00;101350.69;4991911;28;20073;-81
2021/03/19 12:42:35;;;;;;;0.40;0.20;;;;;;;9.26;100.00;101353.13;4992973;28;20065;-82
2021/03/19 12:45:39;;;;;;;1.10;0.22;;;;;;;9.24;100.00;101350.78;4992726;28;20057;-81
2021/03/19 12:48:43;;;;;;;1.05;0.50;;;;;;;9.21;100.00;101356.41;4992895;28;20069;-83
2021/03/19 12:51:46;;;;;;;1.25;0.20;;;;;;;9.37;100.00;101350.91;5025588;28;20065;-82
2021/03/19 12:54:50;;;;;;;1.20;0.25;;;;;;;9.52;100.00;101354.94;4993674;28;20069;-82
2021/03/19 12:57:53;;;;;;;1.95;0.20;;;;;;;9.66;100.00;101349.03;5006414;28;20441;-82
2021/03/19 13:00:57;;;;;;;1.65;0.60;;;;;;;9.57;100.00;101348.88;5004245;28;20065;-81
2021/03/19 13:04:01;;;;;;;1.67;1.15;;;;;;;9.52;100.00;101349.38;5007364;28;20070;-83
2021/03/19 13:07:08;;;;;;;1.35;0.98;;;;;;;9.42;100.00;101351.16;4996288;28;20069;-82
2021/03/19 13:10:16;;;;;;;2.53;1.02;;;;;;;9.28;100.00;101359.84;4995000;28;20061;-82
2021/03/19 13:13:21;;;;;;;2.42;0.43;;;;;;;9.23;100.00;101354.75;4994081;28;20053;-81
2021/03/19 13:16:24;;;;;;;1.83;0.40;;;;;;;9.23;100.00;101353.97;4994247;28;20089;-81
2021/03/19 13:19:28;;;;;;;1.70;0.38;;;;;;;9.31;100.00;101350.66;4994567;28;20524;-82
2021/03/19 13:22:31;;;;;;;2.90;1.25;;;;;;;9.59;100.00;101350.00;4994423;28;20054;-81
2021/03/19 13:25:38;;;;;;;3.58;1.55;;;;;;;9.74;100.00;101347.66;5003962;28;20527;-82
2021/03/19 13:28:42;;;;;;;2.85;1.23;;;;;;;9.60;100.00;101346.00;5000689;28;20061;-84
2021/03/19 13:31:45;;;;;;;0.73;0.73;;;;;;;9.52;100.00;101346.59;5001860;28;20113;-80
2021/03/19 13:34:49;;;;;;;1.85;0.90;;;;;;;9.42;100.00;101342.81;4991743;28;20065;-78
2021/03/19 13:37:53;;;;;;;3.08;0.95;;;;;;;9.38;100.00;101344.13;4953614;28;20299;-78
2021/03/19 13:40:59;;;;;;;10.48;1.92;;;;;;;9.28;100.00;101336.81;4953602;28;20280;-77
2021/03/19 13:44:07;;;;;;;2.10;0.82;;;;;;;9.24;100.00;101336.09;4951204;28;20077;-79
2021/03/19 13:47:11;;;;;;;6.03;0.70;;;;;;;9.27;100.00;101338.78;4952087;28;20140;-78
2021/03/19 13:50:20;;;;;;;9.95;1.05;;;;;;;9.31;100.00;101338.72;4954855;28;20365;-80
2021/03/19 13:53:25;;;;;;;4.47;1.25;;;;;;;9.26;100.00;101345.56;4953271;28;20088;-77
2021/03/19 13:56:28;;;;;;;9.82;1.48;;;;;;;9.18;100.00;101343.38;4953796;28;20613;-77
2021/03/19 13:59:33;;;;;;;8.05;2.38;;;;;;;9.13;100.00;101345.47;4952178;28;20085;-76
2021/03/19 14:02:37;;;;;;;2.63;0.88;;;;;;;9.15;100.00;101337.47;4953197;28;20076;-77
2021/03/19 14:05:41;;;;;;;3.33;1.27;;;;;;;9.22;100.00;101336.53;4969643;28;20366;-77
2021/03/19 14:08:45;;;;;;;9.32;1.58;;;;;;;9.28;100.00;101342.38;4953460;28;20184;-77
2021/03/19 14:11:49;;;;;;;3.25;1.17;;;;;;;9.29;100.00;101341.16;4952903;28;20172;-78
2021/03/19 14:14:52;;;;;;;1.63;1.05;;;;;;;9.28;100.00;101336.81;4952888;28;20065;-78
2021/03/19 14:17:56;;;;;;;4.80;1.50;;;;;;;9.27;100.00;101338.03;4955511;28;20454;-77
2021/03/19 14:21:00;;;;;;;3.75;1.35;;;;;;;9.18;100.00;101337.81;4951723;28;20164;-77
2021/03/19 14:24:04;;;;;;;1.70;0.57;;;;;;;9.04;100.00;101331.34;4952023;28;20626;-77
2021/03/19 14:27:07;;;;;;;1.52;1.08;;;;;;;8.96;100.00;101337.50;4953559;28;20196;-76
2021/03/19 14:30:12;;;;;;;3.88;0.88;;;;;;;8.89;100.00;101335.63;4953157;28;20057;-76
2021/03/19 14:33:17;;;;;;;1.75;0.90;;;;;;;8.82;100.00;101346.09;4952492;28;20061;-77
2021/03/19 14:36:23;;;;;;;2.92;1.17;;;;;;;8.72;100.00;101347.91;4950455;28;20073;-76
2021/03/19 14:39:31;;;;;;;7.05;2.15;;;;;;;8.66;100.00;101348.81;4951362;28;20062;-78
2021/03/19 14:42:36;;;;;;;8.43;1.40;;;;;;;8.64;100.00;101351.22;4951433;28;20684;-77
2021/03/19 14:45:40;;;;;;;3.63;1.08;;;;;;;8.61;100.00;101350.09;4952022;28;20062;-78
2021/03/19 14:48:44;;;;;;;1.70;0.70;;;;;;;8.59;100.00;101348.94;4958404;28;20287;-76